New Orleans, LA

04:53 PM CDT am 28. April 2017 (GMT -0500)
Faubourg St. John | | Change Station
aktive Warnung: Coastal Flood Advisory aktiver Hinweis: Coastal Flood Advisory

Höhe 9 ft 29.98 °N, 90.08 °W | Updated 11 seconds ago

Bedeckt
Bedeckt
83.8 °F
gefühlte 91 °F
N
1.1
Wind Wechselnd Wind aus Süd
Gusts 2.5 mph

Heute
Max. -- | schwach -- °F
--% Regenrisiko
Gestern
Max. -- | schwach -- °F
Precip. -- inch
Druck 29.88 inch
Sichtweite 10.0 Meilen
Wolken Few 2400 ft
Wolkig 2900 ft
Bedeckt 3900 ft
Hitzeindex 91 °F
Taupunkt 74 °F
Feuchtigkeit 72%
Regen 0.00 inch
Schneehöhe Nicht verfügbar..
6:19 AM 7:35 PM
Erstes Viertel, 9% visible
SPECI KNEW 282100Z 17018G23KT 10SM FEW024 BKN029 OVC039 29/23 A2988 RMK AO2 T02940233
Druck 29.88 inch
Sichtweite 10.0 Meilen
Wolken Few 2400 ft
Wolkig 2900 ft
Bedeckt 3900 ft
Hitzeindex 91 °F
Taupunkt 74 °F
Feuchtigkeit 72%
Regen 0.00 inch
Schneehöhe Nicht verfügbar..
6:19 AM 7:35 PM
Erstes Viertel, 9% visible
SPECI KNEW 282100Z 17018G23KT 10SM FEW024 BKN029 OVC039 29/23 A2988 RMK AO2 T02940233

Get Your Daily Forecast Email!

Thanks for signing up!

Be on the lookout for a verification email in your inbox.

You'll start receiving severe weather alerts in your inbox..

×

10-Day Weather Forecast

Almanac

Astronomie

Apr. 28, 2017 Aufgang Untergang
Genaue Zeit
Bürgerliche Dämmerung
Nautische Dämmerung
Astronomische Dämmerung
Mond
Länge des sichtbaren Lichts
Tageslänge
Tomorrow will be .
, % of the Moon is Illuminated

Heutige Rekorde

State Highs State Lows

Community

WunderPhotos

WunderBlog® & News

Nearby

Luftqualität

  Luftqualität LQ Index Schadstoff
Not available.

Schneehöhe

Station Depth Höhe

Erdbebenaktivität

Stadt Distance Mag. Time & Date
Minimum magnitude displayed is 2.5.

küstennahe Wassertemperaturen

Ort Temperatur

Stations

Wetterstationen in der Umgebung

Stationsstandort Temp. Windchill Taupunkt Feuchtigkeit Wind Precip. Höhe Aktualisiert Art
                   

Watches & Warnings

Coastal Flood Advisory
Issued: 12:33 CDT Apr. 28, 2017 – National Weather Service

... Coastal flood advisory in effect until midnight CDT Sunday
night...

The National Weather Service in New Orleans has issued a coastal
flood advisory, which is in effect until midnight CDT Sunday
night.

* Coastal flooding... tides around a half foot above normal today
and 1 to 2 feet above normal Saturday and Sunday

* timing... astronomical high tides will be in the early afternoon
hours today... Saturday and Sunday.

* Impacts... minor flooding of low lying areas and access roads
near tidal lakes... bays and inlets as well as the open coast
outside the hurricane protection levee systems.

Precautionary/preparedness actions...

A coastal flood advisory indicates that onshore winds and tides
will combine to generate flooding of low areas along the shore.